Time;durP1;ratioP1;P1;durP2;ratioP2;P2;SDS_P1;SDS_P2;PMS_P1;PMS_P2;Temp;Humidity;BMP_temperature;BMP_pressure;BME280_temperature;BME280_humidity;BME280_pressure;Samples;Min_cycle;Max_cycle;Signal;HPM_P1;HPM_P2
2023/12/25 00:02:07;;;;;;;;;;;;;;;;;;5135555;27;966;-56
2023/12/25 00:04:32;;;;;;;;;;;;;;;;;;5135463;27;852;-55
2023/12/25 00:06:58;;;;;;;;;;;;;;;;;;5135342;27;884;-57
2023/12/25 00:09:23;;;;;;;;;;;;;;;;;;5100419;27;1297;-60
2023/12/25 00:11:48;;;;;;;;;;;;;;;;;;5117018;27;1465;-60
2023/12/25 00:14:14;;;;;;;;;;;;;;;;;;5135076;27;915;-60
2023/12/25 00:16:40;;;;;;;;;;;;;;;;;;5116694;27;1906;-61
2023/12/25 00:19:06;;;;;;;;;;;;;;;;;;5135504;27;840;-60
2023/12/25 00:21:31;;;;;;;;;;;;;;;;;;5135004;27;892;-59
2023/12/25 00:23:56;;;;;;;;;;;;;;;;;;5135051;27;891;-59
2023/12/25 00:26:22;;;;;;;;;;;;;;;;;;5134794;27;844;-59
2023/12/25 00:28:47;;;;;;;;;;;;;;;;;;5134894;27;911;-60
2023/12/25 00:31:12;;;;;;;;;;;;;;;;;;5134851;27;828;-60
2023/12/25 00:33:38;;;;;;;;;;;;;;;;;;5135328;27;840;-59
2023/12/25 00:36:03;;;;;;;;;;;;;;;;;;5135203;27;695;-59
2023/12/25 00:38:28;;;;;;;;;;;;;;;;;;5116650;27;1972;-60
2023/12/25 00:40:54;;;;;;;;;;;;;;;;;;5135069;27;840;-60
2023/12/25 00:43:19;;;;;;;;;;;;;;;;;;5134730;27;852;-59
2023/12/25 00:45:44;;;;;;;;;;;;;;;;;;5135358;27;852;-60
2023/12/25 00:48:10;;;;;;;;;;;;;;;;;;5135035;28;876;-59
2023/12/25 00:50:35;;;;;;;;;;;;;;;;;;5135108;27;978;-60
2023/12/25 00:53:00;;;;;;;;;;;;;;;;;;5134444;27;1071;-60
2023/12/25 00:55:26;;;;;;;;;;;;;;;;;;5119099;27;986;-59
2023/12/25 00:57:51;;;;;;;;;;;;;;;;;;5138731;27;1902;-60
2023/12/25 01:00:17;;;;;;;;;;;;;;;;;;5121093;27;923;-60
2023/12/25 01:02:42;;;;;;;;;;;;;;;;;;5139452;27;1377;-60
2023/12/25 01:05:09;;;;;;;;;;;;;;;;;;5138816;27;930;-61
2023/12/25 01:07:34;;;;;;;;;;;;;;;;;;5121426;27;816;-59
2023/12/25 01:10:00;;;;;;;;;;;;;;;;;;5139032;27;820;-59
2023/12/25 01:12:25;;;;;;;;;;;;;;;;;;5138721;27;995;-59
2023/12/25 01:14:50;;;;;;;;;;;;;;;;;;5139237;27;859;-59
2023/12/25 01:17:15;;;;;;;;;;;;;;;;;;5137625;27;1894;-58
2023/12/25 01:19:41;;;;;;;;;;;;;;;;;;5134711;27;1152;-59
2023/12/25 01:22:06;;;;;;;;;;;;;;;;;;5135112;27;1172;-59
2023/12/25 01:24:31;;;;;;;;;;;;;;;;;;5139212;27;876;-60
2023/12/25 01:26:57;;;;;;;;;;;;;;;;;;5138734;27;990;-60
2023/12/25 01:29:22;;;;;;;;;;;;;;;;;;5139081;27;825;-59
2023/12/25 01:31:47;;;;;;;;;;;;;;;;;;5138578;27;820;-60
2023/12/25 01:34:12;;;;;;;;;;;;;;;;;;5138796;27;982;-60
2023/12/25 01:36:38;;;;;;;;;;;;;;;;;;5139051;27;1951;-60
2023/12/25 01:39:04;;;;;;;;;;;;;;;;;;5138478;27;899;-60
2023/12/25 01:41:29;;;;;;;;;;;;;;;;;;5138188;27;892;-60
2023/12/25 01:43:54;;;;;;;;;;;;;;;;;;5138356;27;1009;-60
2023/12/25 01:46:19;;;;;;;;;;;;;;;;;;5138747;27;958;-60
2023/12/25 01:48:47;;;;;;;;;;;;;;;;;;5119799;27;832;-59
2023/12/25 01:51:13;;;;;;;;;;;;;;;;;;5138214;27;906;-59
2023/12/25 01:53:38;;;;;;;;;;;;;;;;;;5137902;27;990;-60
2023/12/25 01:56:03;;;;;;;;;;;;;;;;;;5137567;27;895;-59
2023/12/25 01:58:29;;;;;;;;;;;;;;;;;;5138020;27;1972;-60
2023/12/25 02:00:54;;;;;;;;;;;;;;;;;;5137786;27;970;-60
2023/12/25 02:03:19;;;;;;;;;;;;;;;;;;5119061;27;919;-60
2023/12/25 02:05:46;;;;;;;;;;;;;;;;;;5137828;27;955;-60
2023/12/25 02:08:14;;;;;;;;;;;;;;;;;;5138631;27;784;-59
2023/12/25 02:10:40;;;;;;;;;;;;;;;;;;5138166;27;809;-60
2023/12/25 02:13:05;;;;;;;;;;;;;;;;;;5137820;27;915;-60
2023/12/25 02:15:30;;;;;;;;;;;;;;;;;;5137765;27;888;-59
2023/12/25 02:17:56;;;;;;;;;;;;;;;;;;5137610;27;1890;-60
2023/12/25 02:20:23;;;;;;;;;;;;;;;;;;5137846;27;998;-59
2023/12/25 02:22:49;;;;;;;;;;;;;;;;;;5137866;27;899;-60
2023/12/25 02:25:21;;;;;;;;;;;;;;;;;;5137266;27;891;-59
2023/12/25 02:27:47;;;;;;;;;;;;;;;;;;5137198;27;828;-59
2023/12/25 02:30:12;;;;;;;;;;;;;;;;;;5137613;27;833;-60
2023/12/25 02:32:38;;;;;;;;;;;;;;;;;;5119757;27;1512;-60
2023/12/25 02:35:04;;;;;;;;;;;;;;;;;;5137515;27;895;-60
2023/12/25 02:37:29;;;;;;;;;;;;;;;;;;5137249;27;1956;-60
2023/12/25 02:39:54;;;;;;;;;;;;;;;;;;5137078;27;595;-60
2023/12/25 02:42:19;;;;;;;;;;;;;;;;;;5137205;27;903;-59
2023/12/25 02:44:45;;;;;;;;;;;;;;;;;;5137375;27;966;-60
2023/12/25 02:47:10;;;;;;;;;;;;;;;;;;5137088;27;950;-59
2023/12/25 02:49:35;;;;;;;;;;;;;;;;;;5137459;27;808;-60
2023/12/25 02:52:00;;;;;;;;;;;;;;;;;;5136793;27;1215;-60
2023/12/25 02:54:26;;;;;;;;;;;;;;;;;;5118765;27;955;-60
2023/12/25 02:56:51;;;;;;;;;;;;;;;;;;5136737;27;1950;-59
2023/12/25 02:59:16;;;;;;;;;;;;;;;;;;5136921;27;780;-61
2023/12/25 03:01:41;;;;;;;;;;;;;;;;;;5118121;27;1183;-59
2023/12/25 03:04:07;;;;;;;;;;;;;;;;;;5136988;27;828;-59
2023/12/25 03:06:32;;;;;;;;;;;;;;;;;;5136515;27;875;-60
2023/12/25 03:08:57;;;;;;;;;;;;;;;;;;5117803;27;1168;-59
2023/12/25 03:11:23;;;;;;;;;;;;;;;;;;5136473;27;887;-60
2023/12/25 03:13:48;;;;;;;;;;;;;;;;;;5135997;27;904;-60
2023/12/25 03:16:13;;;;;;;;;;;;;;;;;;5118543;27;856;-60
2023/12/25 03:18:38;;;;;;;;;;;;;;;;;;5135533;27;1913;-60
2023/12/25 03:21:04;;;;;;;;;;;;;;;;;;5136404;27;931;-60
2023/12/25 03:23:29;;;;;;;;;;;;;;;;;;5117928;27;1434;-59
2023/12/25 03:25:56;;;;;;;;;;;;;;;;;;5136468;27;895;-60
2023/12/25 03:28:21;;;;;;;;;;;;;;;;;;5118279;27;837;-60
2023/12/25 03:30:46;;;;;;;;;;;;;;;;;;5136604;27;841;-60
2023/12/25 03:33:12;;;;;;;;;;;;;;;;;;5136521;27;1037;-60
2023/12/25 03:35:37;;;;;;;;;;;;;;;;;;5136552;27;920;-59
2023/12/25 03:38:02;;;;;;;;;;;;;;;;;;5136914;27;1968;-60
2023/12/25 03:40:27;;;;;;;;;;;;;;;;;;5136715;27;883;-58
2023/12/25 03:42:53;;;;;;;;;;;;;;;;;;5136042;27;1077;-59
2023/12/25 03:45:18;;;;;;;;;;;;;;;;;;5136488;27;887;-60
2023/12/25 03:47:44;;;;;;;;;;;;;;;;;;5118148;27;844;-57
2023/12/25 03:50:09;;;;;;;;;;;;;;;;;;5136444;27;813;-57
2023/12/25 03:52:34;;;;;;;;;;;;;;;;;;5117820;27;852;-57
2023/12/25 03:55:00;;;;;;;;;;;;;;;;;;5135756;27;844;-57
2023/12/25 03:57:25;;;;;;;;;;;;;;;;;;5135830;27;1922;-57
2023/12/25 03:59:50;;;;;;;;;;;;;;;;;;5117419;27;911;-57
2023/12/25 04:02:15;;;;;;;;;;;;;;;;;;5135716;27;805;-57
2023/12/25 04:04:41;;;;;;;;;;;;;;;;;;5135791;27;990;-58
2023/12/25 04:07:06;;;;;;;;;;;;;;;;;;5135468;27;817;-58
2023/12/25 04:09:31;;;;;;;;;;;;;;;;;;5135428;27;986;-57
2023/12/25 04:11:56;;;;;;;;;;;;;;;;;;5117127;27;919;-57
2023/12/25 04:14:22;;;;;;;;;;;;;;;;;;5135267;27;1046;-58
2023/12/25 04:16:47;;;;;;;;;;;;;;;;;;5135719;27;1878;-57
2023/12/25 04:19:13;;;;;;;;;;;;;;;;;;5135874;27;899;-57
2023/12/25 04:21:38;;;;;;;;;;;;;;;;;;5135717;27;1003;-58
2023/12/25 04:24:04;;;;;;;;;;;;;;;;;;5135234;27;797;-58
2023/12/25 04:26:29;;;;;;;;;;;;;;;;;;5135779;27;856;-58
2023/12/25 04:28:54;;;;;;;;;;;;;;;;;;5135009;27;832;-57
2023/12/25 04:31:19;;;;;;;;;;;;;;;;;;5135571;27;1155;-56
2023/12/25 04:33:45;;;;;;;;;;;;;;;;;;5135219;27;841;-59
2023/12/25 04:36:10;;;;;;;;;;;;;;;;;;5135266;27;931;-59
2023/12/25 04:38:38;;;;;;;;;;;;;;;;;;5135104;27;1914;-60
2023/12/25 04:41:04;;;;;;;;;;;;;;;;;;5135807;27;844;-59
2023/12/25 04:43:29;;;;;;;;;;;;;;;;;;5117028;28;828;-59
2023/12/25 04:45:55;;;;;;;;;;;;;;;;;;5117202;28;911;-59
2023/12/25 04:48:20;;;;;;;;;;;;;;;;;;5135545;28;780;-59
2023/12/25 04:50:46;;;;;;;;;;;;;;;;;;5135069;28;867;-60
2023/12/25 04:53:12;;;;;;;;;;;;;;;;;;5134725;28;757;-59
2023/12/25 04:55:40;;;;;;;;;;;;;;;;;;5117030;28;954;-59
2023/12/25 04:58:05;;;;;;;;;;;;;;;;;;5134732;28;1972;-58
2023/12/25 05:00:31;;;;;;;;;;;;;;;;;;5134687;28;887;-59
2023/12/25 05:02:57;;;;;;;;;;;;;;;;;;5116173;28;870;-60
2023/12/25 05:05:22;;;;;;;;;;;;;;;;;;5134837;28;930;-58
2023/12/25 05:07:48;;;;;;;;;;;;;;;;;;5134582;28;1010;-60
2023/12/25 05:10:13;;;;;;;;;;;;;;;;;;5134901;28;907;-60
2023/12/25 05:12:38;;;;;;;;;;;;;;;;;;5135250;28;847;-60
2023/12/25 05:15:03;;;;;;;;;;;;;;;;;;5134580;28;829;-60
2023/12/25 05:17:29;;;;;;;;;;;;;;;;;;5099087;28;1892;-60
2023/12/25 05:19:54;;;;;;;;;;;;;;;;;;5134854;28;852;-59
2023/12/25 05:22:20;;;;;;;;;;;;;;;;;;5134806;28;1014;-60
2023/12/25 05:24:45;;;;;;;;;;;;;;;;;;5134961;28;804;-60
2023/12/25 05:27:10;;;;;;;;;;;;;;;;;;5134822;28;898;-59
2023/12/25 05:29:36;;;;;;;;;;;;;;;;;;5135235;28;1049;-58
2023/12/25 05:32:01;;;;;;;;;;;;;;;;;;5134767;28;1006;-59
2023/12/25 05:34:27;;;;;;;;;;;;;;;;;;5135071;28;816;-59
2023/12/25 05:36:52;;;;;;;;;;;;;;;;;;5134531;28;1909;-59
2023/12/25 05:39:18;;;;;;;;;;;;;;;;;;5134475;28;817;-59
2023/12/25 05:41:43;;;;;;;;;;;;;;;;;;5137767;27;875;-59
2023/12/25 05:44:08;;;;;;;;;;;;;;;;;;5138734;27;974;-59
2023/12/25 05:46:34;;;;;;;;;;;;;;;;;;5139244;27;817;-60
2023/12/25 05:48:59;;;;;;;;;;;;;;;;;;5138536;27;871;-60
2023/12/25 05:51:24;;;;;;;;;;;;;;;;;;5119980;27;844;-60
2023/12/25 05:53:49;;;;;;;;;;;;;;;;;;5138398;27;1054;-59
2023/12/25 05:56:15;;;;;;;;;;;;;;;;;;5138169;27;828;-62
2023/12/25 05:58:40;;;;;;;;;;;;;;;;;;5137957;27;2014;-61
2023/12/25 06:01:08;;;;;;;;;;;;;;;;;;5138532;27;1034;-60
2023/12/25 06:03:33;;;;;;;;;;;;;;;;;;5138788;27;867;-61
2023/12/25 06:05:58;;;;;;;;;;;;;;;;;;5138213;27;1038;-59
2023/12/25 06:08:24;;;;;;;;;;;;;;;;;;5138137;27;1117;-59
2023/12/25 06:10:49;;;;;;;;;;;;;;;;;;5138420;27;991;-60
2023/12/25 06:13:15;;;;;;;;;;;;;;;;;;5138298;27;895;-59
2023/12/25 06:15:41;;;;;;;;;;;;;;;;;;5137925;27;1076;-60
2023/12/25 06:18:06;;;;;;;;;;;;;;;;;;5138486;27;1894;-59
2023/12/25 06:20:31;;;;;;;;;;;;;;;;;;5138278;27;902;-59
2023/12/25 06:22:57;;;;;;;;;;;;;;;;;;5138422;27;892;-60
2023/12/25 06:25:22;;;;;;;;;;;;;;;;;;5119638;27;987;-60
2023/12/25 06:27:47;;;;;;;;;;;;;;;;;;5138150;27;1037;-59
2023/12/25 06:30:13;;;;;;;;;;;;;;;;;;5138184;27;836;-59
2023/12/25 06:32:39;;;;;;;;;;;;;;;;;;5119852;27;958;-60
2023/12/25 06:35:06;;;;;;;;;;;;;;;;;;5137704;27;1076;-59
2023/12/25 06:37:31;;;;;;;;;;;;;;;;;;5138176;27;1901;-59
2023/12/25 06:39:56;;;;;;;;;;;;;;;;;;5137236;27;907;-59
2023/12/25 06:42:22;;;;;;;;;;;;;;;;;;5119148;27;911;-59
2023/12/25 06:44:47;;;;;;;;;;;;;;;;;;5137524;27;946;-59
2023/12/25 06:47:12;;;;;;;;;;;;;;;;;;5118874;27;1250;-60
2023/12/25 06:49:38;;;;;;;;;;;;;;;;;;5137440;27;931;-60
2023/12/25 06:52:03;;;;;;;;;;;;;;;;;;5137151;27;820;-60
2023/12/25 06:54:28;;;;;;;;;;;;;;;;;;5138017;27;953;-60
2023/12/25 06:56:54;;;;;;;;;;;;;;;;;;5136511;27;1901;-59
2023/12/25 06:59:19;;;;;;;;;;;;;;;;;;5136353;27;903;-59
2023/12/25 07:01:45;;;;;;;;;;;;;;;;;;5136991;27;875;-60
2023/12/25 07:04:11;;;;;;;;;;;;;;;;;;5137255;27;1007;-59
2023/12/25 07:06:36;;;;;;;;;;;;;;;;;;5137463;27;848;-60
2023/12/25 07:09:01;;;;;;;;;;;;;;;;;;5137862;27;1010;-59
2023/12/25 07:11:27;;;;;;;;;;;;;;;;;;5137798;27;816;-61
2023/12/25 07:13:52;;;;;;;;;;;;;;;;;;5119007;27;914;-59
2023/12/25 07:16:21;;;;;;;;;;;;;;;;;;5137052;27;987;-60
2023/12/25 07:18:47;;;;;;;;;;;;;;;;;;5135983;27;1890;-59
2023/12/25 07:21:12;;;;;;;;;;;;;;;;;;5134980;27;934;-59
2023/12/25 07:23:37;;;;;;;;;;;;;;;;;;5134965;27;836;-59
2023/12/25 07:26:03;;;;;;;;;;;;;;;;;;5134555;27;907;-59
2023/12/25 07:28:28;;;;;;;;;;;;;;;;;;5116172;27;1626;-60
2023/12/25 07:30:53;;;;;;;;;;;;;;;;;;5116159;27;1182;-58
2023/12/25 07:33:18;;;;;;;;;;;;;;;;;;5135569;27;981;-60
2023/12/25 07:35:43;;;;;;;;;;;;;;;;;;5136243;27;1006;-59
2023/12/25 07:38:09;;;;;;;;;;;;;;;;;;5117948;27;1949;-59
2023/12/25 07:40:35;;;;;;;;;;;;;;;;;;5136855;27;951;-59
2023/12/25 07:43:01;;;;;;;;;;;;;;;;;;5136843;27;821;-58
2023/12/25 07:45:26;;;;;;;;;;;;;;;;;;5136419;27;828;-59
2023/12/25 07:47:51;;;;;;;;;;;;;;;;;;5132927;27;1270;-59
2023/12/25 07:50:16;;;;;;;;;;;;;;;;;;5132246;27;1135;-60
2023/12/25 07:52:42;;;;;;;;;;;;;;;;;;5132352;27;1179;-60
2023/12/25 07:55:07;;;;;;;;;;;;;;;;;;5132852;27;1211;-59
2023/12/25 07:57:32;;;;;;;;;;;;;;;;;;5132560;27;1882;-58
2023/12/25 07:59:57;;;;;;;;;;;;;;;;;;5131544;27;1156;-59
2023/12/25 08:02:24;;;;;;;;;;;;;;;;;;5132097;27;1120;-58
2023/12/25 08:04:49;;;;;;;;;;;;;;;;;;5131406;27;1187;-59
2023/12/25 08:07:14;;;;;;;;;;;;;;;;;;5130056;27;1149;-60
2023/12/25 08:09:40;;;;;;;;;;;;;;;;;;5130605;27;1223;-59
2023/12/25 08:12:05;;;;;;;;;;;;;;;;;;5134196;27;1176;-59
2023/12/25 08:14:32;;;;;;;;;;;;;;;;;;5133592;27;1050;-59
2023/12/25 08:16:57;;;;;;;;;;;;;;;;;;5133510;27;1973;-59
2023/12/25 08:19:22;;;;;;;;;;;;;;;;;;5133501;27;888;-59
2023/12/25 08:21:47;;;;;;;;;;;;;;;;;;5116441;27;901;-60
2023/12/25 08:24:13;;;;;;;;;;;;;;;;;;5135662;27;1203;-60
2023/12/25 08:26:38;;;;;;;;;;;;;;;;;;5116903;27;867;-59
2023/12/25 08:29:03;;;;;;;;;;;;;;;;;;5135715;27;891;-59
2023/12/25 08:31:28;;;;;;;;;;;;;;;;;;5135557;27;848;-59
2023/12/25 08:33:54;;;;;;;;;;;;;;;;;;5116926;27;836;-57
2023/12/25 08:36:19;;;;;;;;;;;;;;;;;;5116264;27;816;-56
2023/12/25 08:38:44;;;;;;;;;;;;;;;;;;5134776;27;1905;-57
2023/12/25 08:41:10;;;;;;;;;;;;;;;;;;5134774;27;1065;-57
2023/12/25 08:43:35;;;;;;;;;;;;;;;;;;5135491;27;974;-57
2023/12/25 08:46:00;;;;;;;;;;;;;;;;;;5116290;28;947;-57
2023/12/25 08:48:25;;;;;;;;;;;;;;;;;;5135340;27;958;-57
2023/12/25 08:50:51;;;;;;;;;;;;;;;;;;5134846;27;839;-58
2023/12/25 08:53:16;;;;;;;;;;;;;;;;;;5135330;27;844;-56
2023/12/25 08:55:41;;;;;;;;;;;;;;;;;;5135049;28;891;-59
2023/12/25 08:58:07;;;;;;;;;;;;;;;;;;5116448;28;1901;-59
2023/12/25 09:00:32;;;;;;;;;;;;;;;;;;5134677;27;873;-59
2023/12/25 09:02:57;;;;;;;;;;;;;;;;;;5134842;28;895;-58
2023/12/25 09:05:23;;;;;;;;;;;;;;;;;;5132769;27;1269;-58
2023/12/25 09:07:48;;;;;;;;;;;;;;;;;;5130361;27;1112;-58
2023/12/25 09:10:13;;;;;;;;;;;;;;;;;;5127871;28;1235;-59
2023/12/25 09:12:38;;;;;;;;;;;;;;;;;;5134150;28;911;-59
2023/12/25 09:15:04;;;;;;;;;;;;;;;;;;5134377;27;831;-59
2023/12/25 09:17:30;;;;;;;;;;;;;;;;;;5138281;27;1988;-58
2023/12/25 09:19:55;;;;;;;;;;;;;;;;;;5137998;27;927;-59
2023/12/25 09:22:23;;;;;;;;;;;;;;;;;;5138810;27;938;-59
2023/12/25 09:24:49;;;;;;;;;;;;;;;;;;5120836;27;931;-58
2023/12/25 09:27:14;;;;;;;;;;;;;;;;;;5139362;27;848;-60
2023/12/25 09:29:39;;;;;;;;;;;;;;;;;;5139052;27;832;-59
2023/12/25 09:32:05;;;;;;;;;;;;;;;;;;5138871;27;844;-59
2023/12/25 09:34:30;;;;;;;;;;;;;;;;;;5138498;27;954;-58
2023/12/25 09:36:58;;;;;;;;;;;;;;;;;;5103348;27;2348;-59
2023/12/25 09:39:23;;;;;;;;;;;;;;;;;;5138332;27;872;-60
2023/12/25 09:41:48;;;;;;;;;;;;;;;;;;5138338;27;962;-59
2023/12/25 09:44:14;;;;;;;;;;;;;;;;;;5138383;27;824;-58
2023/12/25 09:46:39;;;;;;;;;;;;;;;;;;5138800;27;903;-58
2023/12/25 09:49:05;;;;;;;;;;;;;;;;;;5117889;27;1199;-58
2023/12/25 09:51:33;;;;;;;;;;;;;;;;;;5137432;27;1179;-58
2023/12/25 09:53:58;;;;;;;;;;;;;;;;;;5138853;27;863;-58
2023/12/25 09:56:24;;;;;;;;;;;;;;;;;;5138137;27;824;-58
2023/12/25 09:58:50;;;;;;;;;;;;;;;;;;5138141;27;1906;-58
2023/12/25 10:01:15;;;;;;;;;;;;;;;;;;5137628;27;840;-58
2023/12/25 10:03:43;;;;;;;;;;;;;;;;;;5119627;27;875;-56
2023/12/25 10:06:09;;;;;;;;;;;;;;;;;;5137332;27;1120;-58
2023/12/25 10:08:36;;;;;;;;;;;;;;;;;;5132945;27;1199;-58
2023/12/25 10:11:02;;;;;;;;;;;;;;;;;;5133659;27;1148;-57
2023/12/25 10:13:28;;;;;;;;;;;;;;;;;;5133242;27;1204;-58
2023/12/25 10:15:53;;;;;;;;;;;;;;;;;;5132145;27;1210;-58
2023/12/25 10:18:19;;;;;;;;;;;;;;;;;;5132847;27;1961;-58
2023/12/25 10:20:55;;;;;;;;;;;;;;;;;;5133636;27;1175;-58
2023/12/25 10:23:26;;;;;;;;;;;;;;;;;;5133981;27;1152;-58
2023/12/25 10:25:51;;;;;;;;;;;;;;;;;;5132019;27;1212;-58
2023/12/25 10:28:18;;;;;;;;;;;;;;;;;;5133707;27;1234;-57
2023/12/25 10:30:44;;;;;;;;;;;;;;;;;;5133606;27;1179;-60
2023/12/25 10:33:14;;;;;;;;;;;;;;;;;;5133908;27;1175;-58
2023/12/25 10:35:40;;;;;;;;;;;;;;;;;;5134132;27;1159;-58
2023/12/25 10:38:05;;;;;;;;;;;;;;;;;;5133730;27;1905;-58
2023/12/25 10:40:31;;;;;;;;;;;;;;;;;;5134338;27;1159;-58
2023/12/25 10:42:57;;;;;;;;;;;;;;;;;;5137011;27;987;-58
2023/12/25 10:45:23;;;;;;;;;;;;;;;;;;5134412;27;1152;-58
2023/12/25 10:47:50;;;;;;;;;;;;;;;;;;5116639;27;1246;-58
2023/12/25 10:50:17;;;;;;;;;;;;;;;;;;5119012;27;990;-58
2023/12/25 10:52:43;;;;;;;;;;;;;;;;;;5136988;27;793;-58
2023/12/25 10:55:10;;;;;;;;;;;;;;;;;;5137196;27;880;-56
2023/12/25 10:57:35;;;;;;;;;;;;;;;;;;5137017;27;1894;-56
2023/12/25 11:00:04;;;;;;;;;;;;;;;;;;5137167;27;817;-57
2023/12/25 11:02:34;;;;;;;;;;;;;;;;;;5136865;27;985;-55
2023/12/25 11:05:00;;;;;;;;;;;;;;;;;;5137239;27;915;-56
2023/12/25 11:07:25;;;;;;;;;;;;;;;;;;5135799;27;1108;-56
2023/12/25 11:09:52;;;;;;;;;;;;;;;;;;5131731;27;1167;-57
2023/12/25 11:12:18;;;;;;;;;;;;;;;;;;5131449;27;1104;-57
2023/12/25 11:14:43;;;;;;;;;;;;;;;;;;5112424;27;1207;-57
2023/12/25 11:17:12;;;;;;;;;;;;;;;;;;5131762;27;1917;-60
2023/12/25 11:19:37;;;;;;;;;;;;;;;;;;5116319;27;1287;-57
2023/12/25 11:22:21;;;;;;;;;;;;;;;;;;5134813;27;1035;-56
2023/12/25 11:24:46;;;;;;;;;;;;;;;;;;5116842;27;1195;-55
2023/12/25 11:27:16;;;;;;;;;;;;;;;;;;5117730;27;1049;-55
2023/12/25 11:29:41;;;;;;;;;;;;;;;;;;5136532;27;845;-57
2023/12/25 11:32:08;;;;;;;;;;;;;;;;;;5136817;27;977;-57
2023/12/25 11:34:38;;;;;;;;;;;;;;;;;;5117911;27;856;-55
2023/12/25 11:37:16;;;;;;;;;;;;;;;;;;5136216;27;1960;-56
2023/12/25 11:39:47;;;;;;;;;;;;;;;;;;5135875;27;828;-56
2023/12/25 11:42:12;;;;;;;;;;;;;;;;;;5117670;27;1285;-56
2023/12/25 11:44:38;;;;;;;;;;;;;;;;;;5117994;27;939;-56
2023/12/25 11:47:03;;;;;;;;;;;;;;;;;;5135954;27;766;-56
2023/12/25 11:49:31;;;;;;;;;;;;;;;;;;5135939;27;812;-56
2023/12/25 11:51:57;;;;;;;;;;;;;;;;;;5135352;27;867;-56
2023/12/25 11:54:27;;;;;;;;;;;;;;;;;;5135771;27;927;-59
2023/12/25 11:56:52;;;;;;;;;;;;;;;;;;5135669;27;903;-58
2023/12/25 11:59:18;;;;;;;;;;;;;;;;;;5136023;27;1977;-58
2023/12/25 12:01:44;;;;;;;;;;;;;;;;;;5117247;27;1323;-59
2023/12/25 12:04:09;;;;;;;;;;;;;;;;;;5135245;27;974;-58
2023/12/25 12:06:34;;;;;;;;;;;;;;;;;;5135700;27;897;-59
2023/12/25 12:09:00;;;;;;;;;;;;;;;;;;5116408;27;1258;-58
2023/12/25 12:11:25;;;;;;;;;;;;;;;;;;5132984;27;906;-58
2023/12/25 12:13:52;;;;;;;;;;;;;;;;;;5114957;27;863;-58
2023/12/25 12:16:17;;;;;;;;;;;;;;;;;;5133286;27;877;-56
2023/12/25 12:18:42;;;;;;;;;;;;;;;;;;5132884;27;1898;-57
2023/12/25 12:21:07;;;;;;;;;;;;;;;;;;5114791;27;895;-56
2023/12/25 12:23:33;;;;;;;;;;;;;;;;;;5133039;27;812;-55
2023/12/25 12:25:59;;;;;;;;;;;;;;;;;;5133569;27;1112;-56
2023/12/25 12:28:25;;;;;;;;;;;;;;;;;;5131547;27;1139;-59
2023/12/25 12:30:51;;;;;;;;;;;;;;;;;;5131241;27;1163;-61
2023/12/25 12:33:17;;;;;;;;;;;;;;;;;;5131795;27;1159;-57
2023/12/25 12:35:45;;;;;;;;;;;;;;;;;;5133568;27;1348;-58
2023/12/25 12:38:12;;;;;;;;;;;;;;;;;;5135800;27;1894;-58
2023/12/25 12:40:38;;;;;;;;;;;;;;;;;;5136224;27;907;-58
2023/12/25 12:43:04;;;;;;;;;;;;;;;;;;5135534;27;935;-59
2023/12/25 12:45:29;;;;;;;;;;;;;;;;;;5135829;27;824;-58
2023/12/25 12:47:55;;;;;;;;;;;;;;;;;;5135969;27;824;-58
2023/12/25 12:50:20;;;;;;;;;;;;;;;;;;5135352;27;820;-58
2023/12/25 12:52:46;;;;;;;;;;;;;;;;;;5135423;27;910;-58
2023/12/25 12:55:11;;;;;;;;;;;;;;;;;;5135779;27;816;-58
2023/12/25 12:57:37;;;;;;;;;;;;;;;;;;5117371;28;1901;-57
2023/12/25 13:00:03;;;;;;;;;;;;;;;;;;5136073;28;868;-57
2023/12/25 13:02:29;;;;;;;;;;;;;;;;;;5135611;27;903;-56
2023/12/25 13:04:54;;;;;;;;;;;;;;;;;;5134192;28;855;-57
2023/12/25 13:07:19;;;;;;;;;;;;;;;;;;5135315;27;981;-57
2023/12/25 13:09:45;;;;;;;;;;;;;;;;;;5135421;27;1147;-57
2023/12/25 13:12:10;;;;;;;;;;;;;;;;;;5130432;27;1148;-57
2023/12/25 13:14:35;;;;;;;;;;;;;;;;;;5130101;28;1147;-56
2023/12/25 13:17:01;;;;;;;;;;;;;;;;;;5111621;28;1437;-57
2023/12/25 13:19:26;;;;;;;;;;;;;;;;;;5130807;28;2270;-56
2023/12/25 13:21:51;;;;;;;;;;;;;;;;;;5130123;27;1159;-59
2023/12/25 13:24:17;;;;;;;;;;;;;;;;;;5111576;28;1221;-57
2023/12/25 13:26:42;;;;;;;;;;;;;;;;;;5131385;28;1163;-57
2023/12/25 13:29:07;;;;;;;;;;;;;;;;;;5133066;27;1234;-58
2023/12/25 13:31:33;;;;;;;;;;;;;;;;;;5133061;28;1175;-57
2023/12/25 13:33:58;;;;;;;;;;;;;;;;;;5134213;27;1285;-56
2023/12/25 13:36:23;;;;;;;;;;;;;;;;;;5135072;28;837;-57
2023/12/25 13:38:51;;;;;;;;;;;;;;;;;;5099518;28;1897;-57
2023/12/25 13:41:17;;;;;;;;;;;;;;;;;;5135245;28;1147;-58
2023/12/25 13:43:42;;;;;;;;;;;;;;;;;;5135963;28;911;-59
2023/12/25 13:46:07;;;;;;;;;;;;;;;;;;5135805;28;887;-59
2023/12/25 13:48:32;;;;;;;;;;;;;;;;;;5116834;28;1018;-59
2023/12/25 13:50:58;;;;;;;;;;;;;;;;;;5135084;28;820;-59
2023/12/25 13:53:23;;;;;;;;;;;;;;;;;;5135238;28;871;-58
2023/12/25 13:55:49;;;;;;;;;;;;;;;;;;5132016;28;1262;-59
2023/12/25 13:58:14;;;;;;;;;;;;;;;;;;5131681;28;1898;-57
2023/12/25 14:00:40;;;;;;;;;;;;;;;;;;5113726;27;1426;-59
2023/12/25 14:03:05;;;;;;;;;;;;;;;;;;5133693;27;1227;-58
2023/12/25 14:05:30;;;;;;;;;;;;;;;;;;5133994;27;1151;-59
2023/12/25 14:07:56;;;;;;;;;;;;;;;;;;5131517;27;1183;-58
2023/12/25 14:10:22;;;;;;;;;;;;;;;;;;5134120;27;1163;-59
2023/12/25 14:12:47;;;;;;;;;;;;;;;;;;5136815;27;1231;-59
2023/12/25 14:15:13;;;;;;;;;;;;;;;;;;5138505;27;863;-57
2023/12/25 14:17:38;;;;;;;;;;;;;;;;;;5138151;27;1901;-57
2023/12/25 14:20:04;;;;;;;;;;;;;;;;;;5137850;27;1066;-57
2023/12/25 14:22:30;;;;;;;;;;;;;;;;;;5137367;27;835;-57
2023/12/25 14:24:56;;;;;;;;;;;;;;;;;;5137732;27;788;-57
2023/12/25 14:27:22;;;;;;;;;;;;;;;;;;5137258;27;895;-57
2023/12/25 14:29:47;;;;;;;;;;;;;;;;;;5137222;27;958;-57
2023/12/25 14:32:12;;;;;;;;;;;;;;;;;;5137460;27;903;-56
2023/12/25 14:34:37;;;;;;;;;;;;;;;;;;5137100;27;895;-58
2023/12/25 14:37:03;;;;;;;;;;;;;;;;;;5137234;27;856;-57
2023/12/25 14:39:28;;;;;;;;;;;;;;;;;;5119036;27;1901;-56
2023/12/25 14:41:53;;;;;;;;;;;;;;;;;;5118408;27;1382;-57
2023/12/25 14:44:19;;;;;;;;;;;;;;;;;;5136925;27;856;-57
2023/12/25 14:46:44;;;;;;;;;;;;;;;;;;5136692;27;867;-57
2023/12/25 14:49:10;;;;;;;;;;;;;;;;;;5136485;27;883;-57
2023/12/25 14:51:35;;;;;;;;;;;;;;;;;;5136376;27;916;-56
2023/12/25 14:54:01;;;;;;;;;;;;;;;;;;5136512;27;784;-57
2023/12/25 14:56:26;;;;;;;;;;;;;;;;;;5136382;27;836;-56
2023/12/25 14:58:51;;;;;;;;;;;;;;;;;;5117883;27;1987;-57
2023/12/25 15:01:17;;;;;;;;;;;;;;;;;;5136349;27;860;-57
2023/12/25 15:03:42;;;;;;;;;;;;;;;;;;5136080;27;1017;-57
2023/12/25 15:06:09;;;;;;;;;;;;;;;;;;5118006;27;848;-57
2023/12/25 15:08:34;;;;;;;;;;;;;;;;;;5136558;27;950;-57
2023/12/25 15:10:59;;;;;;;;;;;;;;;;;;5136214;27;873;-56
2023/12/25 15:13:25;;;;;;;;;;;;;;;;;;5134878;27;1030;-57
2023/12/25 15:15:50;;;;;;;;;;;;;;;;;;5135777;27;1234;-57
2023/12/25 15:18:15;;;;;;;;;;;;;;;;;;5113779;27;1898;-56
2023/12/25 15:20:44;;;;;;;;;;;;;;;;;;5131481;27;1175;-56
2023/12/25 15:23:09;;;;;;;;;;;;;;;;;;5130858;27;1261;-57
2023/12/25 15:25:37;;;;;;;;;;;;;;;;;;5131362;27;1160;-57
2023/12/25 15:28:03;;;;;;;;;;;;;;;;;;5131272;27;1199;-56
2023/12/25 15:30:28;;;;;;;;;;;;;;;;;;5131443;27;1178;-56
2023/12/25 15:32:54;;;;;;;;;;;;;;;;;;5130954;27;1163;-56
2023/12/25 15:35:20;;;;;;;;;;;;;;;;;;5131048;27;1063;-58
2023/12/25 15:37:45;;;;;;;;;;;;;;;;;;5131567;27;1989;-57
2023/12/25 15:40:10;;;;;;;;;;;;;;;;;;5130835;27;1219;-56
2023/12/25 15:42:36;;;;;;;;;;;;;;;;;;5134730;27;1136;-56
2023/12/25 15:45:03;;;;;;;;;;;;;;;;;;5136158;27;852;-56
2023/12/25 15:47:29;;;;;;;;;;;;;;;;;;5135770;27;864;-56
2023/12/25 15:49:54;;;;;;;;;;;;;;;;;;5135541;27;698;-57
2023/12/25 15:52:23;;;;;;;;;;;;;;;;;;5135651;27;1015;-57
2023/12/25 15:54:48;;;;;;;;;;;;;;;;;;5135470;27;867;-57
2023/12/25 15:57:15;;;;;;;;;;;;;;;;;;5135649;27;1914;-57
2023/12/25 15:59:40;;;;;;;;;;;;;;;;;;5135482;27;844;-57
2023/12/25 16:02:06;;;;;;;;;;;;;;;;;;5135320;27;942;-56
2023/12/25 16:04:31;;;;;;;;;;;;;;;;;;5135486;27;896;-57
2023/12/25 16:06:56;;;;;;;;;;;;;;;;;;5135218;27;1067;-56
2023/12/25 16:09:22;;;;;;;;;;;;;;;;;;5135551;27;990;-56
2023/12/25 16:11:47;;;;;;;;;;;;;;;;;;5135417;27;1068;-57
2023/12/25 16:14:12;;;;;;;;;;;;;;;;;;5135543;27;843;-56
2023/12/25 16:16:38;;;;;;;;;;;;;;;;;;5135448;27;824;-57
2023/12/25 16:19:04;;;;;;;;;;;;;;;;;;5116281;27;1969;-57
2023/12/25 16:21:30;;;;;;;;;;;;;;;;;;5135208;27;921;-57
2023/12/25 16:23:55;;;;;;;;;;;;;;;;;;5135505;27;895;-57
2023/12/25 16:26:21;;;;;;;;;;;;;;;;;;5134782;27;887;-56
2023/12/25 16:28:46;;;;;;;;;;;;;;;;;;5135073;27;863;-57
2023/12/25 16:31:11;;;;;;;;;;;;;;;;;;5136084;27;915;-56
2023/12/25 16:33:37;;;;;;;;;;;;;;;;;;5135481;27;820;-58
2023/12/25 16:36:03;;;;;;;;;;;;;;;;;;5117020;27;852;-57
2023/12/25 16:38:28;;;;;;;;;;;;;;;;;;5134721;27;1957;-56
2023/12/25 16:40:54;;;;;;;;;;;;;;;;;;5116974;27;891;-58
2023/12/25 16:43:19;;;;;;;;;;;;;;;;;;5099350;27;1509;-58
2023/12/25 16:45:44;;;;;;;;;;;;;;;;;;5135185;27;930;-57
2023/12/25 16:48:10;;;;;;;;;;;;;;;;;;5134895;27;938;-57
2023/12/25 16:50:35;;;;;;;;;;;;;;;;;;5117163;28;848;-57
2023/12/25 16:53:00;;;;;;;;;;;;;;;;;;5134899;28;919;-57
2023/12/25 16:55:26;;;;;;;;;;;;;;;;;;5134799;28;919;-57
2023/12/25 16:57:51;;;;;;;;;;;;;;;;;;5134392;28;1968;-56
2023/12/25 17:00:17;;;;;;;;;;;;;;;;;;5116275;28;1359;-57
2023/12/25 17:02:42;;;;;;;;;;;;;;;;;;5134658;28;907;-57